sensor_id;sensor_type;location;lat;lon;timestamp;P1;durP1;ratioP1;P2;durP2;ratioP2
61015;SDS011;46902;52.920;6.536;2023-02-21T00:01:25;34.08;;;15.10;;
61015;SDS011;46902;52.920;6.536;2023-02-21T00:04:09;33.30;;;14.23;;
61015;SDS011;46902;52.920;6.536;2023-02-21T00:06:53;30.20;;;14.50;;
61015;SDS011;46902;52.920;6.536;2023-02-21T00:09:37;35.70;;;14.07;;
61015;SDS011;46902;52.920;6.536;2023-02-21T00:12:22;28.25;;;14.18;;
61015;SDS011;46902;52.920;6.536;2023-02-21T00:15:07;37.20;;;15.77;;
61015;SDS011;46902;52.920;6.536;2023-02-21T00:17:52;34.90;;;14.98;;
61015;SDS011;46902;52.920;6.536;2023-02-21T00:20:36;38.75;;;14.80;;
61015;SDS011;46902;52.920;6.536;2023-02-21T00:23:20;33.88;;;14.55;;
61015;SDS011;46902;52.920;6.536;2023-02-21T00:26:04;35.75;;;14.52;;
61015;SDS011;46902;52.920;6.536;2023-02-21T00:28:48;34.45;;;15.23;;
61015;SDS011;46902;52.920;6.536;2023-02-21T00:31:32;36.55;;;14.73;;
61015;SDS011;46902;52.920;6.536;2023-02-21T00:34:16;32.67;;;15.25;;
61015;SDS011;46902;52.920;6.536;2023-02-21T00:37:00;32.30;;;15.32;;
61015;SDS011;46902;52.920;6.536;2023-02-21T00:39:44;39.10;;;15.50;;
61015;SDS011;46902;52.920;6.536;2023-02-21T00:42:28;34.60;;;15.35;;
61015;SDS011;46902;52.920;6.536;2023-02-21T00:45:12;32.97;;;15.13;;
61015;SDS011;46902;52.920;6.536;2023-02-21T00:47:56;31.23;;;14.60;;
61015;SDS011;46902;52.920;6.536;2023-02-21T00:50:41;33.47;;;14.50;;
61015;SDS011;46902;52.920;6.536;2023-02-21T00:53:25;32.45;;;13.57;;
61015;SDS011;46902;52.920;6.536;2023-02-21T00:56:09;34.78;;;14.98;;
61015;SDS011;46902;52.920;6.536;2023-02-21T00:58:53;32.08;;;13.52;;
61015;SDS011;46902;52.920;6.536;2023-02-21T01:01:37;29.83;;;14.68;;
61015;SDS011;46902;52.920;6.536;2023-02-21T01:04:20;30.05;;;13.75;;
61015;SDS011;46902;52.920;6.536;2023-02-21T01:07:05;33.85;;;13.88;;
61015;SDS011;46902;52.920;6.536;2023-02-21T01:09:49;35.03;;;13.63;;
61015;SDS011;46902;52.920;6.536;2023-02-21T01:12:33;34.33;;;14.63;;
61015;SDS011;46902;52.920;6.536;2023-02-21T01:15:17;24.70;;;13.02;;
61015;SDS011;46902;52.920;6.536;2023-02-21T01:18:01;33.90;;;15.02;;
61015;SDS011;46902;52.920;6.536;2023-02-21T01:20:45;36.60;;;14.27;;
61015;SDS011;46902;52.920;6.536;2023-02-21T01:23:29;32.45;;;14.65;;
61015;SDS011;46902;52.920;6.536;2023-02-21T01:26:14;39.33;;;14.82;;
61015;SDS011;46902;52.920;6.536;2023-02-21T01:28:58;34.78;;;14.63;;
61015;SDS011;46902;52.920;6.536;2023-02-21T01:31:42;32.40;;;14.90;;
61015;SDS011;46902;52.920;6.536;2023-02-21T01:34:26;38.92;;;14.95;;
61015;SDS011;46902;52.920;6.536;2023-02-21T01:37:10;35.67;;;15.43;;
61015;SDS011;46902;52.920;6.536;2023-02-21T01:39:54;28.95;;;15.30;;
61015;SDS011;46902;52.920;6.536;2023-02-21T01:42:38;30.48;;;13.85;;
61015;SDS011;46902;52.920;6.536;2023-02-21T01:48:17;27.90;;;14.43;;
61015;SDS011;46902;52.920;6.536;2023-02-21T01:51:04;31.75;;;14.25;;
61015;SDS011;46902;52.920;6.536;2023-02-21T01:53:51;33.17;;;14.85;;
61015;SDS011;46902;52.920;6.536;2023-02-21T01:56:36;27.35;;;13.88;;
61015;SDS011;46902;52.920;6.536;2023-02-21T01:59:22;37.90;;;14.18;;
61015;SDS011;46902;52.920;6.536;2023-02-21T02:05:13;32.13;;;15.20;;
61015;SDS011;46902;52.920;6.536;2023-02-21T02:07:57;33.13;;;14.00;;
61015;SDS011;46902;52.920;6.536;2023-02-21T02:10:41;29.67;;;13.90;;
61015;SDS011;46902;52.920;6.536;2023-02-21T02:13:34;28.65;;;13.77;;
61015;SDS011;46902;52.920;6.536;2023-02-21T02:27:49;29.40;;;14.57;;
61015;SDS011;46902;52.920;6.536;2023-02-21T02:35:58;26.38;;;14.15;;
61015;SDS011;46902;52.920;6.536;2023-02-21T02:41:14;28.40;;;13.38;;
61015;SDS011;46902;52.920;6.536;2023-02-21T02:46:27;35.60;;;14.70;;
61015;SDS011;46902;52.920;6.536;2023-02-21T02:51:55;30.10;;;14.55;;
61015;SDS011;46902;52.920;6.536;2023-02-21T02:54:28;31.92;;;15.02;;
61015;SDS011;46902;52.920;6.536;2023-02-21T02:56:53;31.63;;;15.48;;
61015;SDS011;46902;52.920;6.536;2023-02-21T02:59:20;34.78;;;16.55;;
61015;SDS011;46902;52.920;6.536;2023-02-21T03:07:20;31.35;;;15.25;;
61015;SDS011;46902;52.920;6.536;2023-02-21T03:10:07;26.85;;;14.85;;
61015;SDS011;46902;52.920;6.536;2023-02-21T03:15:28;32.47;;;14.25;;
61015;SDS011;46902;52.920;6.536;2023-02-21T03:18:01;29.38;;;15.48;;
61015;SDS011;46902;52.920;6.536;2023-02-21T03:20:34;28.98;;;14.95;;
61015;SDS011;46902;52.920;6.536;2023-02-21T03:23:01;29.70;;;15.10;;
61015;SDS011;46902;52.920;6.536;2023-02-21T03:25:28;35.20;;;15.52;;
61015;SDS011;46902;52.920;6.536;2023-02-21T03:27:57;31.40;;;15.10;;
61015;SDS011;46902;52.920;6.536;2023-02-21T03:30:26;28.70;;;15.98;;
61015;SDS011;46902;52.920;6.536;2023-02-21T03:32:53;27.25;;;15.77;;
61015;SDS011;46902;52.920;6.536;2023-02-21T03:35:20;31.40;;;15.55;;
61015;SDS011;46902;52.920;6.536;2023-02-21T03:37:50;29.10;;;14.82;;
61015;SDS011;46902;52.920;6.536;2023-02-21T03:40:19;29.45;;;16.30;;
61015;SDS011;46902;52.920;6.536;2023-02-21T03:42:51;28.70;;;15.77;;
61015;SDS011;46902;52.920;6.536;2023-02-21T03:45:18;31.00;;;16.80;;
61015;SDS011;46902;52.920;6.536;2023-02-21T03:47:44;26.80;;;16.92;;
61015;SDS011;46902;52.920;6.536;2023-02-21T03:50:09;30.98;;;16.55;;
61015;SDS011;46902;52.920;6.536;2023-02-21T03:52:35;27.33;;;15.70;;
61015;SDS011;46902;52.920;6.536;2023-02-21T03:55:01;34.53;;;16.83;;
61015;SDS011;46902;52.920;6.536;2023-02-21T03:57:27;33.13;;;17.58;;
61015;SDS011;46902;52.920;6.536;2023-02-21T03:59:52;33.40;;;18.15;;
61015;SDS011;46902;52.920;6.536;2023-02-21T04:02:18;31.42;;;17.45;;
61015;SDS011;46902;52.920;6.536;2023-02-21T04:04:44;31.20;;;16.77;;
61015;SDS011;46902;52.920;6.536;2023-02-21T04:07:12;34.25;;;18.35;;
61015;SDS011;46902;52.920;6.536;2023-02-21T04:09:39;29.77;;;17.35;;
61015;SDS011;46902;52.920;6.536;2023-02-21T04:12:05;32.85;;;18.00;;
61015;SDS011;46902;52.920;6.536;2023-02-21T04:14:31;32.40;;;18.40;;
61015;SDS011;46902;52.920;6.536;2023-02-21T04:16:56;32.40;;;17.80;;
61015;SDS011;46902;52.920;6.536;2023-02-21T04:19:22;29.75;;;18.67;;
61015;SDS011;46902;52.920;6.536;2023-02-21T04:21:47;36.75;;;18.98;;
61015;SDS011;46902;52.920;6.536;2023-02-21T04:24:13;36.50;;;19.02;;
61015;SDS011;46902;52.920;6.536;2023-02-21T04:26:39;33.20;;;18.65;;
61015;SDS011;46902;52.920;6.536;2023-02-21T04:29:05;27.70;;;17.65;;
61015;SDS011;46902;52.920;6.536;2023-02-21T04:31:30;29.27;;;17.63;;
61015;SDS011;46902;52.920;6.536;2023-02-21T04:33:56;33.95;;;19.23;;
61015;SDS011;46902;52.920;6.536;2023-02-21T04:36:23;31.50;;;19.77;;
61015;SDS011;46902;52.920;6.536;2023-02-21T04:38:48;31.42;;;19.52;;
61015;SDS011;46902;52.920;6.536;2023-02-21T04:41:14;31.38;;;19.90;;
61015;SDS011;46902;52.920;6.536;2023-02-21T04:43:41;31.63;;;20.60;;
61015;SDS011;46902;52.920;6.536;2023-02-21T04:46:07;33.95;;;19.70;;
61015;SDS011;46902;52.920;6.536;2023-02-21T04:48:33;34.80;;;19.30;;
61015;SDS011;46902;52.920;6.536;2023-02-21T04:50:59;30.25;;;19.00;;
61015;SDS011;46902;52.920;6.536;2023-02-21T04:53:25;31.13;;;19.65;;
61015;SDS011;46902;52.920;6.536;2023-02-21T04:55:51;37.80;;;19.55;;
61015;SDS011;46902;52.920;6.536;2023-02-21T04:58:16;29.40;;;19.75;;
61015;SDS011;46902;52.920;6.536;2023-02-21T05:00:42;34.00;;;19.55;;
61015;SDS011;46902;52.920;6.536;2023-02-21T05:03:07;31.15;;;19.65;;
61015;SDS011;46902;52.920;6.536;2023-02-21T05:05:33;30.38;;;20.40;;
61015;SDS011;46902;52.920;6.536;2023-02-21T05:07:59;33.08;;;19.75;;
61015;SDS011;46902;52.920;6.536;2023-02-21T05:10:24;32.53;;;20.50;;
61015;SDS011;46902;52.920;6.536;2023-02-21T05:12:50;30.13;;;19.67;;
61015;SDS011;46902;52.920;6.536;2023-02-21T05:15:16;35.25;;;20.40;;
61015;SDS011;46902;52.920;6.536;2023-02-21T05:17:41;32.65;;;19.52;;
61015;SDS011;46902;52.920;6.536;2023-02-21T05:20:07;30.38;;;20.02;;
61015;SDS011;46902;52.920;6.536;2023-02-21T05:22:38;33.58;;;19.67;;
61015;SDS011;46902;52.920;6.536;2023-02-21T05:25:18;30.33;;;20.30;;
61015;SDS011;46902;52.920;6.536;2023-02-21T05:27:46;33.42;;;20.20;;
61015;SDS011;46902;52.920;6.536;2023-02-21T05:30:13;28.67;;;19.25;;
61015;SDS011;46902;52.920;6.536;2023-02-21T05:32:41;31.25;;;19.40;;
61015;SDS011;46902;52.920;6.536;2023-02-21T05:35:07;27.95;;;19.30;;
61015;SDS011;46902;52.920;6.536;2023-02-21T05:37:33;30.55;;;20.85;;
61015;SDS011;46902;52.920;6.536;2023-02-21T05:39:59;30.05;;;18.20;;
61015;SDS011;46902;52.920;6.536;2023-02-21T05:42:25;31.92;;;18.83;;
61015;SDS011;46902;52.920;6.536;2023-02-21T05:44:50;33.05;;;20.55;;
61015;SDS011;46902;52.920;6.536;2023-02-21T05:47:16;29.15;;;18.45;;
61015;SDS011;46902;52.920;6.536;2023-02-21T05:49:41;33.17;;;20.65;;
61015;SDS011;46902;52.920;6.536;2023-02-21T05:52:10;30.65;;;19.63;;
61015;SDS011;46902;52.920;6.536;2023-02-21T05:54:37;33.33;;;20.80;;
61015;SDS011;46902;52.920;6.536;2023-02-21T05:57:03;29.58;;;18.55;;
61015;SDS011;46902;52.920;6.536;2023-02-21T05:59:28;28.33;;;19.60;;
61015;SDS011;46902;52.920;6.536;2023-02-21T06:01:54;31.02;;;19.23;;
61015;SDS011;46902;52.920;6.536;2023-02-21T06:04:20;28.20;;;19.02;;
61015;SDS011;46902;52.920;6.536;2023-02-21T06:06:47;29.83;;;19.20;;
61015;SDS011;46902;52.920;6.536;2023-02-21T06:09:12;30.88;;;19.85;;
61015;SDS011;46902;52.920;6.536;2023-02-21T06:11:38;31.25;;;20.33;;
61015;SDS011;46902;52.920;6.536;2023-02-21T06:14:06;28.50;;;19.55;;
61015;SDS011;46902;52.920;6.536;2023-02-21T06:16:33;33.20;;;20.83;;
61015;SDS011;46902;52.920;6.536;2023-02-21T06:19:00;28.70;;;20.27;;
61015;SDS011;46902;52.920;6.536;2023-02-21T06:21:26;32.65;;;19.73;;
61015;SDS011;46902;52.920;6.536;2023-02-21T06:23:52;30.88;;;19.55;;
61015;SDS011;46902;52.920;6.536;2023-02-21T06:26:18;32.17;;;20.23;;
61015;SDS011;46902;52.920;6.536;2023-02-21T06:28:45;34.42;;;20.00;;
61015;SDS011;46902;52.920;6.536;2023-02-21T06:31:11;30.25;;;20.60;;
61015;SDS011;46902;52.920;6.536;2023-02-21T06:33:36;36.22;;;21.42;;
61015;SDS011;46902;52.920;6.536;2023-02-21T06:36:05;35.10;;;20.63;;
61015;SDS011;46902;52.920;6.536;2023-02-21T06:38:33;33.53;;;22.20;;
61015;SDS011;46902;52.920;6.536;2023-02-21T06:40:59;35.22;;;21.63;;
61015;SDS011;46902;52.920;6.536;2023-02-21T06:43:25;32.33;;;20.38;;
61015;SDS011;46902;52.920;6.536;2023-02-21T06:45:51;38.13;;;23.45;;
61015;SDS011;46902;52.920;6.536;2023-02-21T06:48:16;37.67;;;22.35;;
61015;SDS011;46902;52.920;6.536;2023-02-21T06:50:42;31.55;;;20.98;;
61015;SDS011;46902;52.920;6.536;2023-02-21T06:53:08;34.90;;;22.40;;
61015;SDS011;46902;52.920;6.536;2023-02-21T06:55:34;36.20;;;22.05;;
61015;SDS011;46902;52.920;6.536;2023-02-21T06:57:59;35.63;;;21.90;;
61015;SDS011;46902;52.920;6.536;2023-02-21T07:00:25;31.80;;;21.73;;
61015;SDS011;46902;52.920;6.536;2023-02-21T07:02:53;38.05;;;21.13;;
61015;SDS011;46902;52.920;6.536;2023-02-21T07:05:19;32.05;;;20.73;;
61015;SDS011;46902;52.920;6.536;2023-02-21T07:07:44;32.28;;;21.85;;
61015;SDS011;46902;52.920;6.536;2023-02-21T07:10:10;34.58;;;22.63;;
61015;SDS011;46902;52.920;6.536;2023-02-21T07:12:37;32.58;;;21.75;;
61015;SDS011;46902;52.920;6.536;2023-02-21T07:15:03;34.08;;;21.45;;
61015;SDS011;46902;52.920;6.536;2023-02-21T07:17:29;33.10;;;21.15;;
61015;SDS011;46902;52.920;6.536;2023-02-21T07:19:55;29.65;;;20.92;;
61015;SDS011;46902;52.920;6.536;2023-02-21T07:22:20;31.67;;;20.70;;
61015;SDS011;46902;52.920;6.536;2023-02-21T07:24:53;35.35;;;21.15;;
61015;SDS011;46902;52.920;6.536;2023-02-21T07:27:19;31.45;;;21.08;;
61015;SDS011;46902;52.920;6.536;2023-02-21T07:29:46;35.20;;;22.50;;
61015;SDS011;46902;52.920;6.536;2023-02-21T07:32:13;31.67;;;22.38;;
61015;SDS011;46902;52.920;6.536;2023-02-21T07:34:39;35.28;;;23.58;;
61015;SDS011;46902;52.920;6.536;2023-02-21T07:37:04;33.83;;;22.67;;
61015;SDS011;46902;52.920;6.536;2023-02-21T07:39:30;33.75;;;22.95;;
61015;SDS011;46902;52.920;6.536;2023-02-21T07:41:55;35.70;;;22.30;;
61015;SDS011;46902;52.920;6.536;2023-02-21T07:44:21;33.78;;;22.55;;
61015;SDS011;46902;52.920;6.536;2023-02-21T07:46:47;35.58;;;22.88;;
61015;SDS011;46902;52.920;6.536;2023-02-21T07:49:12;37.20;;;22.50;;
61015;SDS011;46902;52.920;6.536;2023-02-21T07:51:38;34.42;;;22.23;;
61015;SDS011;46902;52.920;6.536;2023-02-21T07:54:03;33.97;;;22.38;;
61015;SDS011;46902;52.920;6.536;2023-02-21T07:56:29;31.58;;;22.40;;
61015;SDS011;46902;52.920;6.536;2023-02-21T07:58:55;32.25;;;21.23;;
61015;SDS011;46902;52.920;6.536;2023-02-21T08:01:21;29.75;;;21.60;;
61015;SDS011;46902;52.920;6.536;2023-02-21T08:03:48;33.33;;;22.55;;
61015;SDS011;46902;52.920;6.536;2023-02-21T08:06:14;30.38;;;21.95;;
61015;SDS011;46902;52.920;6.536;2023-02-21T08:08:39;33.13;;;23.25;;
61015;SDS011;46902;52.920;6.536;2023-02-21T08:11:05;32.70;;;22.77;;
61015;SDS011;46902;52.920;6.536;2023-02-21T08:13:31;30.88;;;21.58;;
61015;SDS011;46902;52.920;6.536;2023-02-21T08:15:56;30.90;;;21.88;;
61015;SDS011;46902;52.920;6.536;2023-02-21T08:18:22;31.73;;;21.83;;
61015;SDS011;46902;52.920;6.536;2023-02-21T08:20:52;31.45;;;22.27;;
61015;SDS011;46902;52.920;6.536;2023-02-21T08:23:20;37.53;;;22.50;;
61015;SDS011;46902;52.920;6.536;2023-02-21T08:25:46;32.17;;;22.90;;
61015;SDS011;46902;52.920;6.536;2023-02-21T08:28:12;36.50;;;23.67;;
61015;SDS011;46902;52.920;6.536;2023-02-21T08:30:38;32.50;;;22.88;;
61015;SDS011;46902;52.920;6.536;2023-02-21T08:33:04;36.03;;;23.80;;
61015;SDS011;46902;52.920;6.536;2023-02-21T08:35:29;32.38;;;23.45;;
61015;SDS011;46902;52.920;6.536;2023-02-21T08:37:55;34.97;;;24.45;;
61015;SDS011;46902;52.920;6.536;2023-02-21T08:40:21;41.63;;;25.40;;
61015;SDS011;46902;52.920;6.536;2023-02-21T08:42:52;37.22;;;24.92;;
61015;SDS011;46902;52.920;6.536;2023-02-21T08:45:20;37.97;;;25.80;;
61015;SDS011;46902;52.920;6.536;2023-02-21T08:47:47;38.28;;;24.27;;
61015;SDS011;46902;52.920;6.536;2023-02-21T08:50:13;35.75;;;24.92;;
61015;SDS011;46902;52.920;6.536;2023-02-21T08:52:39;36.22;;;24.52;;
61015;SDS011;46902;52.920;6.536;2023-02-21T08:55:05;37.80;;;24.77;;
61015;SDS011;46902;52.920;6.536;2023-02-21T08:57:31;31.25;;;23.92;;
61015;SDS011;46902;52.920;6.536;2023-02-21T08:59:58;34.72;;;24.48;;
61015;SDS011;46902;52.920;6.536;2023-02-21T09:02:25;34.33;;;23.10;;
61015;SDS011;46902;52.920;6.536;2023-02-21T09:04:53;38.67;;;25.30;;
61015;SDS011;46902;52.920;6.536;2023-02-21T09:07:19;36.53;;;23.98;;
61015;SDS011;46902;52.920;6.536;2023-02-21T09:09:46;34.42;;;23.58;;
61015;SDS011;46902;52.920;6.536;2023-02-21T09:12:12;34.03;;;24.23;;
61015;SDS011;46902;52.920;6.536;2023-02-21T09:14:39;36.17;;;25.50;;
61015;SDS011;46902;52.920;6.536;2023-02-21T09:17:06;37.08;;;23.48;;
61015;SDS011;46902;52.920;6.536;2023-02-21T09:19:33;35.72;;;24.70;;
61015;SDS011;46902;52.920;6.536;2023-02-21T09:21:59;35.50;;;25.10;;
61015;SDS011;46902;52.920;6.536;2023-02-21T09:24:25;38.33;;;24.95;;
61015;SDS011;46902;52.920;6.536;2023-02-21T09:26:55;37.53;;;25.60;;
61015;SDS011;46902;52.920;6.536;2023-02-21T09:29:29;35.63;;;25.85;;
61015;SDS011;46902;52.920;6.536;2023-02-21T09:31:56;39.13;;;26.13;;
61015;SDS011;46902;52.920;6.536;2023-02-21T09:34:21;37.03;;;25.05;;
61015;SDS011;46902;52.920;6.536;2023-02-21T09:36:47;44.08;;;26.33;;
61015;SDS011;46902;52.920;6.536;2023-02-21T09:39:15;39.95;;;26.05;;
61015;SDS011;46902;52.920;6.536;2023-02-21T09:41:41;37.92;;;25.90;;
61015;SDS011;46902;52.920;6.536;2023-02-21T09:44:18;37.95;;;24.90;;
61015;SDS011;46902;52.920;6.536;2023-02-21T09:46:49;36.78;;;25.02;;
61015;SDS011;46902;52.920;6.536;2023-02-21T09:49:24;34.80;;;24.80;;
61015;SDS011;46902;52.920;6.536;2023-02-21T09:51:59;37.10;;;25.67;;
61015;SDS011;46902;52.920;6.536;2023-02-21T09:54:33;33.83;;;23.92;;
61015;SDS011;46902;52.920;6.536;2023-02-21T09:57:04;31.40;;;24.42;;
61015;SDS011;46902;52.920;6.536;2023-02-21T09:59:34;33.67;;;24.17;;
61015;SDS011;46902;52.920;6.536;2023-02-21T10:07:01;36.72;;;24.23;;
61015;SDS011;46902;52.920;6.536;2023-02-21T10:09:43;34.40;;;24.77;;
61015;SDS011;46902;52.920;6.536;2023-02-21T10:12:26;33.50;;;24.25;;
61015;SDS011;46902;52.920;6.536;2023-02-21T10:20:37;35.33;;;24.13;;
61015;SDS011;46902;52.920;6.536;2023-02-21T10:23:50;34.15;;;23.77;;
61015;SDS011;46902;52.920;6.536;2023-02-21T10:25:56;30.33;;;22.35;;
61015;SDS011;46902;52.920;6.536;2023-02-21T10:28:26;29.87;;;22.37;;
61015;SDS011;46902;52.920;6.536;2023-02-21T10:30:54;30.52;;;22.40;;
61015;SDS011;46902;52.920;6.536;2023-02-21T10:33:23;24.10;;;20.80;;
61015;SDS011;46902;52.920;6.536;2023-02-21T10:35:49;28.70;;;21.75;;
61015;SDS011;46902;52.920;6.536;2023-02-21T10:38:18;29.10;;;21.98;;
61015;SDS011;46902;52.920;6.536;2023-02-21T10:40:55;32.35;;;23.42;;
61015;SDS011;46902;52.920;6.536;2023-02-21T10:46:36;34.75;;;23.80;;
61015;SDS011;46902;52.920;6.536;2023-02-21T10:52:12;32.53;;;23.33;;
61015;SDS011;46902;52.920;6.536;2023-02-21T10:54:41;29.45;;;23.25;;
61015;SDS011;46902;52.920;6.536;2023-02-21T10:57:23;29.83;;;22.45;;
61015;SDS011;46902;52.920;6.536;2023-02-21T10:59:49;32.63;;;23.08;;
61015;SDS011;46902;52.920;6.536;2023-02-21T11:02:34;30.75;;;22.60;;
61015;SDS011;46902;52.920;6.536;2023-02-21T11:05:11;31.80;;;22.60;;
61015;SDS011;46902;52.920;6.536;2023-02-21T11:07:40;29.45;;;23.52;;
61015;SDS011;46902;52.920;6.536;2023-02-21T11:10:41;30.17;;;23.17;;
61015;SDS011;46902;52.920;6.536;2023-02-21T11:13:19;30.73;;;22.02;;
61015;SDS011;46902;52.920;6.536;2023-02-21T11:15:46;31.27;;;23.60;;
61015;SDS011;46902;52.920;6.536;2023-02-21T11:20:48;30.83;;;21.75;;
61015;SDS011;46902;52.920;6.536;2023-02-21T11:25:50;32.38;;;22.65;;
61015;SDS011;46902;52.920;6.536;2023-02-21T11:28:34;30.13;;;22.65;;
61015;SDS011;46902;52.920;6.536;2023-02-21T11:31:12;31.50;;;23.13;;
61015;SDS011;46902;52.920;6.536;2023-02-21T11:33:57;32.10;;;23.30;;
61015;SDS011;46902;52.920;6.536;2023-02-21T11:36:29;33.33;;;24.85;;
61015;SDS011;46902;52.920;6.536;2023-02-21T11:54:59;31.73;;;22.75;;
61015;SDS011;46902;52.920;6.536;2023-02-21T12:00:16;31.50;;;22.88;;
61015;SDS011;46902;52.920;6.536;2023-02-21T12:13:18;31.25;;;23.58;;
61015;SDS011;46902;52.920;6.536;2023-02-21T12:21:42;34.05;;;24.48;;
61015;SDS011;46902;52.920;6.536;2023-02-21T12:26:55;34.53;;;25.52;;
61015;SDS011;46902;52.920;6.536;2023-02-21T12:32:28;37.88;;;25.35;;
61015;SDS011;46902;52.920;6.536;2023-02-21T12:40:38;42.47;;;30.27;;
61015;SDS011;46902;52.920;6.536;2023-02-21T12:49:20;42.65;;;29.15;;
61015;SDS011;46902;52.920;6.536;2023-02-21T12:52:06;38.92;;;28.85;;
61015;SDS011;46902;52.920;6.536;2023-02-21T12:54:51;38.60;;;27.75;;
61015;SDS011;46902;52.920;6.536;2023-02-21T13:00:15;43.78;;;28.40;;
61015;SDS011;46902;52.920;6.536;2023-02-21T13:02:57;43.92;;;29.05;;
61015;SDS011;46902;52.920;6.536;2023-02-21T13:05:43;42.60;;;29.27;;
61015;SDS011;46902;52.920;6.536;2023-02-21T13:13:38;48.28;;;30.65;;
61015;SDS011;46902;52.920;6.536;2023-02-21T13:16:05;41.75;;;29.65;;
61015;SDS011;46902;52.920;6.536;2023-02-21T13:18:38;44.17;;;30.83;;
61015;SDS011;46902;52.920;6.536;2023-02-21T13:26:48;49.38;;;33.75;;
61015;SDS011;46902;52.920;6.536;2023-02-21T13:29:22;45.13;;;30.25;;
61015;SDS011;46902;52.920;6.536;2023-02-21T13:34:29;42.53;;;29.88;;
61015;SDS011;46902;52.920;6.536;2023-02-21T13:37:02;47.67;;;31.33;;
61015;SDS011;46902;52.920;6.536;2023-02-21T13:39:31;41.25;;;28.35;;
61015;SDS011;46902;52.920;6.536;2023-02-21T13:42:05;42.88;;;29.90;;
61015;SDS011;46902;52.920;6.536;2023-02-21T13:44:47;42.97;;;30.25;;
61015;SDS011;46902;52.920;6.536;2023-02-21T13:48:34;42.38;;;30.10;;
61015;SDS011;46902;52.920;6.536;2023-02-21T13:55:36;45.20;;;31.58;;
61015;SDS011;46902;52.920;6.536;2023-02-21T14:03:09;40.45;;;28.60;;
61015;SDS011;46902;52.920;6.536;2023-02-21T14:08:17;41.72;;;29.80;;
61015;SDS011;46902;52.920;6.536;2023-02-21T14:10:54;43.17;;;29.90;;
61015;SDS011;46902;52.920;6.536;2023-02-21T14:13:30;40.45;;;29.65;;
61015;SDS011;46902;52.920;6.536;2023-02-21T14:18:38;38.22;;;28.23;;
61015;SDS011;46902;52.920;6.536;2023-02-21T14:37:39;42.08;;;30.15;;
61015;SDS011;46902;52.920;6.536;2023-02-21T14:49:06;45.60;;;30.50;;
61015;SDS011;46902;52.920;6.536;2023-02-21T15:03:31;44.67;;;31.05;;
61015;SDS011;46902;52.920;6.536;2023-02-21T15:06:18;47.58;;;32.58;;
61015;SDS011;46902;52.920;6.536;2023-02-21T15:08:49;47.10;;;33.45;;
61015;SDS011;46902;52.920;6.536;2023-02-21T15:14:12;49.30;;;33.00;;
61015;SDS011;46902;52.920;6.536;2023-02-21T15:16:36;46.70;;;32.55;;
61015;SDS011;46902;52.920;6.536;2023-02-21T15:19:04;42.22;;;32.53;;
61015;SDS011;46902;52.920;6.536;2023-02-21T15:21:30;45.60;;;31.77;;
61015;SDS011;46902;52.920;6.536;2023-02-21T15:24:10;47.92;;;32.90;;
61015;SDS011;46902;52.920;6.536;2023-02-21T15:26:38;53.78;;;33.10;;
61015;SDS011;46902;52.920;6.536;2023-02-21T15:29:16;47.90;;;32.85;;
61015;SDS011;46902;52.920;6.536;2023-02-21T15:31:52;49.25;;;32.60;;
61015;SDS011;46902;52.920;6.536;2023-02-21T15:34:41;46.00;;;33.17;;
61015;SDS011;46902;52.920;6.536;2023-02-21T15:37:17;55.13;;;36.55;;
61015;SDS011;46902;52.920;6.536;2023-02-21T15:39:54;56.53;;;35.17;;
61015;SDS011;46902;52.920;6.536;2023-02-21T15:42:22;56.08;;;34.60;;
61015;SDS011;46902;52.920;6.536;2023-02-21T15:44:52;55.40;;;36.35;;
61015;SDS011;46902;52.920;6.536;2023-02-21T15:47:31;50.45;;;33.53;;
61015;SDS011;46902;52.920;6.536;2023-02-21T15:50:00;57.38;;;36.63;;
61015;SDS011;46902;52.920;6.536;2023-02-21T15:52:43;51.85;;;33.35;;
61015;SDS011;46902;52.920;6.536;2023-02-21T16:05:53;51.28;;;34.38;;
61015;SDS011;46902;52.920;6.536;2023-02-21T16:08:20;58.78;;;35.60;;
61015;SDS011;46902;52.920;6.536;2023-02-21T16:10:46;50.90;;;34.20;;
61015;SDS011;46902;52.920;6.536;2023-02-21T16:13:12;54.08;;;34.15;;
61015;SDS011;46902;52.920;6.536;2023-02-21T16:15:39;53.55;;;35.70;;
61015;SDS011;46902;52.920;6.536;2023-02-21T16:18:06;53.55;;;34.85;;
61015;SDS011;46902;52.920;6.536;2023-02-21T16:28:36;66.97;;;37.65;;
61015;SDS011;46902;52.920;6.536;2023-02-21T16:31:16;57.72;;;36.35;;
61015;SDS011;46902;52.920;6.536;2023-02-21T16:33:49;51.65;;;34.88;;
61015;SDS011;46902;52.920;6.536;2023-02-21T16:36:18;55.88;;;36.15;;
61015;SDS011;46902;52.920;6.536;2023-02-21T16:38:48;56.20;;;34.50;;
61015;SDS011;46902;52.920;6.536;2023-02-21T16:41:14;57.95;;;36.65;;
61015;SDS011;46902;52.920;6.536;2023-02-21T16:43:40;54.85;;;33.95;;
61015;SDS011;46902;52.920;6.536;2023-02-21T16:46:06;57.13;;;35.50;;
61015;SDS011;46902;52.920;6.536;2023-02-21T16:48:32;53.60;;;34.97;;
61015;SDS011;46902;52.920;6.536;2023-02-21T16:51:01;61.00;;;36.85;;
61015;SDS011;46902;52.920;6.536;2023-02-21T16:53:29;49.10;;;34.55;;
61015;SDS011;46902;52.920;6.536;2023-02-21T16:55:55;57.95;;;36.42;;
61015;SDS011;46902;52.920;6.536;2023-02-21T16:58:27;48.13;;;33.78;;
61015;SDS011;46902;52.920;6.536;2023-02-21T17:00:56;58.13;;;35.80;;
61015;SDS011;46902;52.920;6.536;2023-02-21T17:03:36;52.88;;;34.03;;
61015;SDS011;46902;52.920;6.536;2023-02-21T17:06:02;58.00;;;36.15;;
61015;SDS011;46902;52.920;6.536;2023-02-21T17:08:28;52.38;;;34.10;;
61015;SDS011;46902;52.920;6.536;2023-02-21T17:10:55;48.90;;;34.42;;
61015;SDS011;46902;52.920;6.536;2023-02-21T17:13:21;54.70;;;35.72;;
61015;SDS011;46902;52.920;6.536;2023-02-21T17:15:46;53.40;;;35.72;;
61015;SDS011;46902;52.920;6.536;2023-02-21T17:18:12;55.00;;;35.88;;
61015;SDS011;46902;52.920;6.536;2023-02-21T17:20:38;58.38;;;37.35;;
61015;SDS011;46902;52.920;6.536;2023-02-21T17:23:03;52.05;;;35.10;;
61015;SDS011;46902;52.920;6.536;2023-02-21T17:25:29;58.45;;;34.88;;
61015;SDS011;46902;52.920;6.536;2023-02-21T17:27:55;55.50;;;34.40;;
61015;SDS011;46902;52.920;6.536;2023-02-21T17:30:21;47.38;;;33.85;;
61015;SDS011;46902;52.920;6.536;2023-02-21T17:32:48;63.40;;;38.20;;
61015;SDS011;46902;52.920;6.536;2023-02-21T17:35:15;56.55;;;36.35;;
61015;SDS011;46902;52.920;6.536;2023-02-21T17:37:43;56.92;;;36.50;;
61015;SDS011;46902;52.920;6.536;2023-02-21T17:40:11;50.13;;;35.35;;
61015;SDS011;46902;52.920;6.536;2023-02-21T17:42:37;65.05;;;37.20;;
61015;SDS011;46902;52.920;6.536;2023-02-21T17:45:03;59.30;;;35.78;;
61015;SDS011;46902;52.920;6.536;2023-02-21T17:47:29;59.88;;;37.25;;
61015;SDS011;46902;52.920;6.536;2023-02-21T17:49:55;62.20;;;37.65;;
61015;SDS011;46902;52.920;6.536;2023-02-21T17:52:24;57.05;;;36.40;;
61015;SDS011;46902;52.920;6.536;2023-02-21T17:54:50;51.10;;;35.85;;
61015;SDS011;46902;52.920;6.536;2023-02-21T17:57:16;58.35;;;36.08;;
61015;SDS011;46902;52.920;6.536;2023-02-21T17:59:41;61.90;;;38.78;;
61015;SDS011;46902;52.920;6.536;2023-02-21T18:02:08;53.85;;;37.05;;
61015;SDS011;46902;52.920;6.536;2023-02-21T18:04:34;67.38;;;38.72;;
61015;SDS011;46902;52.920;6.536;2023-02-21T18:06:59;63.92;;;38.00;;
61015;SDS011;46902;52.920;6.536;2023-02-21T18:09:25;61.15;;;37.63;;